Time;durP1;ratioP1;P1;durP2;ratioP2;P2;SDS_P1;SDS_P2;PMS_P1;PMS_P2;Temp;Humidity;BMP_temperature;BMP_pressure;BME280_temperature;BME280_humidity;BME280_pressure;Samples;Min_cycle;Max_cycle;Signal;HPM_P1;HPM_P2
2021/12/23 00:02:54;;;;;;;2.65;1.40;;;;;;;-10.44;73.59;101066.19;10500790;28;20044;-71
2021/12/23 00:07:55;;;;;;;5.10;1.52;;;;;;;-9.63;73.49;101238.25;10501664;28;20045;-71
2021/12/23 00:12:56;;;;;;;3.22;1.27;;;;;;;-10.08;73.46;101181.34;10483101;28;20499;-71
2021/12/23 00:28:23;;;;;;;4.28;1.35;;;;;;;-10.25;74.05;101173.84;10500449;28;20048;-70
2021/12/23 00:33:24;;;;;;;4.20;1.65;;;;;;;-10.12;74.15;101199.38;10500742;28;20045;-70
2021/12/23 00:38:29;;;;;;;4.47;2.20;;;;;;;-9.84;74.46;101224.78;10499539;28;20041;-74
2021/12/23 00:43:32;;;;;;;3.75;1.95;;;;;;;-9.92;74.48;101193.19;10499450;28;20135;-71
2021/12/23 00:48:39;;;;;;;3.22;1.67;;;;;;;-9.52;74.56;101232.09;10480998;28;20515;-71
2021/12/23 00:53:40;;;;;;;7.40;1.92;;;;;;;-9.65;74.32;101164.53;10498813;28;20047;-70
2021/12/23 00:58:41;;;;;;;4.22;1.70;;;;;;;-9.42;73.97;101209.72;10480200;28;20523;-71
2021/12/23 01:03:42;;;;;;;7.75;2.20;;;;;;;-10.59;74.76;100999.59;10498725;28;20047;-71
2021/12/23 01:08:43;;;;;;;3.55;1.83;;;;;;;-9.07;75.50;101206.63;10481132;28;20502;-71
2021/12/23 01:14:00;;;;;;;3.78;1.58;;;;;;;-10.02;74.49;101027.09;10498738;28;20135;-71
2021/12/23 01:19:03;;;;;;;4.00;1.77;;;;;;;-8.93;74.78;101172.09;10498160;28;20079;-71
2021/12/23 01:24:04;;;;;;;5.80;1.85;;;;;;;-9.86;74.66;101002.03;10497481;28;20531;-71
2021/12/23 01:29:05;;;;;;;4.13;1.83;;;;;;;-8.57;73.86;101217.84;10480273;28;20492;-71
2021/12/23 01:34:06;;;;;;;7.13;2.00;;;;;;;-8.82;74.67;101204.53;10498244;28;20143;-71
2021/12/23 01:39:07;;;;;;;4.88;1.90;;;;;;;-9.12;74.58;101184.38;10491498;28;20045;-70
2021/12/23 01:44:08;;;;;;;4.13;1.88;;;;;;;-8.74;75.26;101233.56;10463560;28;20497;-70
2021/12/23 01:49:09;;;;;;;4.45;1.83;;;;;;;-8.83;74.54;101184.78;10456449;28;20057;-70
2021/12/23 01:54:10;;;;;;;5.20;1.88;;;;;;;-8.91;74.82;101206.38;10455592;28;20440;-71
2021/12/23 01:59:11;;;;;;;4.70;1.63;;;;;;;-9.50;74.72;101088.06;10454814;28;20041;-70
2021/12/23 02:04:12;;;;;;;6.65;2.08;;;;;;;-10.35;75.49;100935.09;10455091;28;20037;-70
2021/12/23 02:09:13;;;;;;;3.55;1.55;;;;;;;-8.49;74.92;101246.09;10454238;28;20608;-70
2021/12/23 02:14:13;;;;;;;6.93;2.35;;;;;;;-8.59;75.14;101221.31;10455072;28;20559;-70
2021/12/23 02:19:18;;;;;;;4.43;1.95;;;;;;;-8.51;74.83;101227.22;10455347;28;20045;-70
2021/12/23 02:24:19;;;;;;;6.03;2.40;;;;;;;-8.86;74.62;101163.38;10454988;28;20033;-70
2021/12/23 02:29:20;;;;;;;5.03;2.05;;;;;;;-8.35;74.75;101246.63;10454415;28;20036;-70
2021/12/23 02:34:22;;;;;;;5.85;1.67;;;;;;;-8.65;75.59;101182.78;10454148;28;20102;-70
2021/12/23 02:39:25;;;;;;;4.38;2.17;;;;;;;-8.17;75.15;101231.75;10453793;28;20067;-73
2021/12/23 02:44:26;;;;;;;4.07;1.88;;;;;;;-7.99;75.38;101246.03;10454836;28;20041;-70
2021/12/23 02:49:27;;;;;;;4.07;2.15;;;;;;;-7.91;75.19;101246.75;10454446;28;20057;-70
2021/12/23 02:54:28;;;;;;;7.40;2.50;;;;;;;-7.95;74.94;101229.63;10454299;28;20052;-70
2021/12/23 02:59:29;;;;;;;5.45;2.53;;;;;;;-7.77;75.16;101257.66;10453556;28;20049;-71
2021/12/23 03:04:30;;;;;;;6.00;2.63;;;;;;;-7.57;75.15;101254.66;10454210;28;20124;-67
2021/12/23 03:09:31;;;;;;;5.78;2.30;;;;;;;-7.62;74.63;101252.19;10463021;28;20067;-69
2021/12/23 03:14:32;;;;;;;6.88;2.10;;;;;;;-7.73;74.58;101263.59;10482273;28;20041;-69
2021/12/23 03:19:33;;;;;;;6.03;2.50;;;;;;;-7.69;74.94;101272.97;10495815;28;20048;-69
2021/12/23 03:24:34;;;;;;;8.82;3.55;;;;;;;-7.98;74.89;101227.97;10500967;28;20166;-70
2021/12/23 03:29:35;;;;;;;4.43;2.42;;;;;;;-7.91;75.60;101259.63;10485974;28;20108;-70
2021/12/23 03:34:36;;;;;;;6.47;3.22;;;;;;;-8.11;75.20;101241.94;10494031;28;20408;-70
2021/12/23 03:39:37;;;;;;;6.35;2.88;;;;;;;-7.81;74.97;101286.94;10484030;28;20044;-69
2021/12/23 03:44:37;;;;;;;8.80;3.20;;;;;;;-8.76;75.45;101127.19;10502363;28;20040;-71
2021/12/23 03:49:38;;;;;;;6.70;2.90;;;;;;;-7.95;76.04;101245.09;10502020;28;20431;-69
2021/12/23 03:54:39;;;;;;;6.63;2.80;;;;;;;-8.79;75.37;101109.19;10501342;28;20583;-70
2021/12/23 03:59:40;;;;;;;11.32;3.28;;;;;;;-7.73;75.60;101297.97;10501539;28;20067;-69
2021/12/23 04:04:41;;;;;;;6.03;3.38;;;;;;;-8.04;75.88;101249.56;10501971;28;20029;-70
2021/12/23 04:09:42;;;;;;;5.82;2.83;;;;;;;-8.09;75.32;101260.81;10464033;28;20057;-72
2021/12/23 04:14:43;;;;;;;11.30;3.53;;;;;;;-8.08;75.39;101299.44;10497793;28;20045;-69
2021/12/23 04:19:46;;;;;;;6.57;3.42;;;;;;;-8.59;75.50;101250.50;10501461;28;20048;-71
2021/12/23 04:24:47;;;;;;;13.18;4.90;;;;;;;-8.69;75.52;101237.81;10500764;28;20105;-70
2021/12/23 04:29:48;;;;;;;5.82;3.05;;;;;;;-8.41;75.38;101300.03;10499970;28;20174;-69
2021/12/23 04:34:48;;;;;;;10.00;3.72;;;;;;;-8.56;75.54;101281.38;10500318;28;20037;-68
2021/12/23 04:39:49;;;;;;;8.35;2.97;;;;;;;-8.51;75.77;101307.06;10492880;28;20048;-69
2021/12/23 04:44:50;;;;;;;5.32;2.58;;;;;;;-8.72;75.38;101310.81;10461403;28;20055;-69
2021/12/23 04:49:51;;;;;;;8.43;2.88;;;;;;;-8.98;75.44;101288.84;10458609;28;20084;-69
2021/12/23 04:54:52;;;;;;;12.75;3.35;;;;;;;-9.05;75.83;101317.28;10458316;28;20037;-69
2021/12/23 04:59:53;;;;;;;5.72;3.30;;;;;;;-9.69;77.12;101277.72;10458232;28;20544;-69
2021/12/23 05:04:53;;;;;;;8.70;3.25;;;;;;;-9.28;77.18;101326.13;10458211;28;20037;-69
2021/12/23 05:09:54;;;;;;;8.93;3.72;;;;;;;-8.90;77.32;101347.97;10439937;28;20033;-69
2021/12/23 05:14:55;;;;;;;12.75;3.90;;;;;;;-10.24;76.62;101065.06;10439141;28;20091;-69
2021/12/23 05:19:56;;;;;;;9.65;4.25;;;;;;;-9.86;76.11;101074.84;10457624;28;20087;-69
2021/12/23 05:24:56;;;;;;;10.52;4.25;;;;;;;-7.94;75.86;101353.38;10457250;28;20072;-69
2021/12/23 05:29:57;;;;;;;7.25;3.78;;;;;;;-7.76;75.60;101349.63;10456437;28;20447;-69
2021/12/23 05:34:58;;;;;;;10.63;4.55;;;;;;;-8.78;75.79;101169.28;10456328;28;20037;-69
2021/12/23 05:39:59;;;;;;;11.48;4.43;;;;;;;-7.41;75.40;101361.03;10456042;28;20049;-69
2021/12/23 05:45:00;;;;;;;8.57;4.18;;;;;;;-7.30;75.89;101351.34;10455275;28;20037;-69
2021/12/23 05:50:01;;;;;;;10.05;4.57;;;;;;;-7.21;75.93;101353.78;10456835;28;20057;-68
2021/12/23 05:55:04;;;;;;;10.60;5.13;;;;;;;-7.27;75.74;101340.13;10456363;28;20489;-69
2021/12/23 06:00:13;;;;;;;9.60;5.28;;;;;;;-7.90;75.79;101230.38;10455385;28;20087;-69
2021/12/23 06:05:15;;;;;;;11.77;5.20;;;;;;;-8.08;75.53;101213.53;10437573;28;20491;-69
2021/12/23 06:10:16;;;;;;;10.68;5.03;;;;;;;-7.96;75.66;101249.38;10436873;28;20041;-69
2021/12/23 06:15:17;;;;;;;9.98;5.35;;;;;;;-8.05;76.03;101223.78;10437316;28;20044;-69
2021/12/23 06:20:18;;;;;;;13.20;5.65;;;;;;;-7.08;75.54;101349.19;10453862;28;20511;-69
2021/12/23 06:25:19;;;;;;;9.30;5.18;;;;;;;-7.16;76.43;101328.69;10437082;28;20493;-69
2021/12/23 06:30:21;;;;;;;15.43;5.70;;;;;;;-7.87;76.22;101166.69;10455528;28;20133;-69
2021/12/23 06:35:25;;;;;;;13.25;5.70;;;;;;;-6.44;75.33;101370.22;10454719;28;20036;-69
2021/12/23 06:40:26;;;;;;;9.20;4.88;;;;;;;-6.38;75.75;101358.88;10453712;28;20033;-69
2021/12/23 06:45:27;;;;;;;8.65;5.18;;;;;;;-6.22;75.81;101368.00;10454961;28;20032;-69
2021/12/23 06:50:27;;;;;;;9.02;5.20;;;;;;;-6.43;75.20;101326.25;10454345;28;20060;-69
2021/12/23 06:55:28;;;;;;;9.15;4.68;;;;;;;-6.35;75.73;101336.38;10454184;28;20524;-69
2021/12/23 07:00:29;;;;;;;8.52;4.60;;;;;;;-6.85;75.50;101262.59;10461538;28;20049;-69
2021/12/23 07:05:30;;;;;;;8.50;4.28;;;;;;;-6.31;75.82;101360.44;10461509;28;20039;-69
2021/12/23 07:10:33;;;;;;;9.30;4.55;;;;;;;-6.02;75.97;101396.81;10462185;28;20036;-69
2021/12/23 07:15:35;;;;;;;10.88;4.53;;;;;;;-6.08;75.75;101337.47;10462104;28;20047;-69
2021/12/23 07:20:36;;;;;;;7.47;4.15;;;;;;;-5.34;75.27;101392.50;10461568;28;20087;-69
2021/12/23 07:25:37;;;;;;;9.15;4.40;;;;;;;-4.93;74.51;101373.22;10462827;28;20432;-69
2021/12/23 07:30:38;;;;;;;12.70;4.22;;;;;;;-4.72;73.42;101330.25;10461381;28;20037;-69
2021/12/23 07:35:40;;;;;;;8.20;4.40;;;;;;;-4.34;72.33;101317.81;10461289;28;20041;-69
2021/12/23 07:40:41;;;;;;;8.00;4.57;;;;;;;-4.95;72.03;101172.03;10461548;28;20040;-70
2021/12/23 07:45:41;;;;;;;8.48;4.43;;;;;;;-3.77;72.06;101306.44;10460751;28;20106;-71
2021/12/23 07:50:42;;;;;;;9.93;3.75;;;;;;;-3.82;70.81;101209.69;10459637;28;20091;-70
2021/12/23 07:55:43;;;;;;;8.77;4.50;;;;;;;-2.96;71.02;101325.19;10460222;28;20405;-70
2021/12/23 08:00:45;;;;;;;6.65;3.70;;;;;;;-3.46;69.75;101189.31;10460180;28;20055;-70
2021/12/23 08:05:45;;;;;;;7.43;4.15;;;;;;;-2.76;68.84;101333.91;10459295;28;20067;-71
2021/12/23 08:10:48;;;;;;;6.68;4.05;;;;;;;-3.67;69.47;101294.81;10460130;28;20519;-70
2021/12/23 08:15:49;;;;;;;6.93;3.88;;;;;;;-4.08;69.70;101344.69;10459456;28;20048;-70
2021/12/23 08:20:49;;;;;;;6.60;3.92;;;;;;;-4.33;70.42;101297.94;10459432;28;20408;-70
2021/12/23 08:25:51;;;;;;;6.55;3.42;;;;;;;-3.76;68.71;101307.28;10458603;28;20045;-71
2021/12/23 08:30:51;;;;;;;10.52;4.82;;;;;;;-3.75;67.23;101267.44;10459867;28;20037;-70
2021/12/23 08:35:52;;;;;;;6.75;4.07;;;;;;;-3.42;67.39;101272.31;10458724;28;20037;-71
2021/12/23 08:40:53;;;;;;;8.35;3.75;;;;;;;-3.51;66.75;101242.31;10458540;28;20472;-71
2021/12/23 08:45:54;;;;;;;6.88;3.78;;;;;;;-3.61;66.75;101202.03;10458212;28;20136;-71
2021/12/23 08:50:55;;;;;;;7.13;3.90;;;;;;;-3.05;66.83;101301.25;10458621;28;20504;-71
2021/12/23 08:55:55;;;;;;;9.82;4.22;;;;;;;-3.39;66.02;101249.66;10458625;28;20492;-71
2021/12/23 09:00:56;;;;;;;7.60;3.63;;;;;;;-3.32;67.00;101302.25;10457841;28;20120;-70
2021/12/23 09:05:59;;;;;;;7.05;3.53;;;;;;;-3.44;67.25;101293.13;10457466;28;20485;-70
2021/12/23 09:11:00;;;;;;;9.60;3.95;;;;;;;-3.76;67.09;101219.84;10455560;28;20120;-71
2021/12/23 09:16:01;;;;;;;6.65;3.67;;;;;;;-3.48;66.89;101247.41;10456770;28;20123;-70
2021/12/23 09:21:02;;;;;;;9.25;3.88;;;;;;;-3.43;66.24;101248.09;10457170;28;20540;-70
2021/12/23 09:26:09;;;;;;;8.38;4.13;;;;;;;-3.27;66.06;101270.00;10456751;28;20555;-71
2021/12/23 09:36:29;;;;;;;7.07;3.95;;;;;;;-3.22;65.89;101223.06;10455723;28;20045;-70
2021/12/23 09:41:31;;;;;;;7.03;3.97;;;;;;;-3.00;66.21;101223.06;10456306;28;20041;-71
2021/12/23 09:46:34;;;;;;;11.57;4.03;;;;;;;-4.01;65.34;101048.59;10456140;28;20134;-70
2021/12/23 09:51:36;;;;;;;8.32;4.38;;;;;;;-3.82;65.56;101043.53;10456202;28;20056;-70
2021/12/23 09:56:37;;;;;;;6.95;3.33;;;;;;;-3.80;64.82;101044.34;10455063;28;20049;-70
2021/12/23 10:01:38;;;;;;;9.15;4.03;;;;;;;-2.96;65.76;101198.66;10455852;28;20028;-71
2021/12/23 10:06:39;;;;;;;8.45;4.13;;;;;;;-3.11;65.57;101176.72;10455020;28;20414;-70
2021/12/23 10:38:06;;;;;;;10.85;4.25;;;;;;;-3.49;65.28;101062.16;10454348;28;20045;-70
2021/12/23 10:43:11;;;;;;;10.05;3.88;;;;;;;-2.87;65.32;101174.91;10452626;28;20044;-70
2021/12/23 10:48:15;;;;;;;10.82;4.60;;;;;;;-3.16;65.39;101155.25;10452857;28;20037;-71
2021/12/23 10:59:26;;;;;;;6.40;3.95;;;;;;;-2.68;65.49;101200.16;10453971;28;20049;-70
2021/12/23 11:04:30;;;;;;;10.38;3.90;;;;;;;-3.50;65.57;101063.06;10454181;28;20048;-70
2021/12/23 11:09:43;;;;;;;8.00;4.00;;;;;;;-2.61;65.82;101206.78;10453605;28;20057;-70
2021/12/23 11:37:01;;;;;;;7.43;3.80;;;;;;;-2.74;66.91;101151.00;10453742;28;20090;-70
2021/12/23 11:42:13;;;;;;;9.88;3.25;;;;;;;-3.30;66.16;101009.44;10452777;28;20465;-70
2021/12/23 11:47:15;;;;;;;8.20;3.70;;;;;;;-2.00;65.26;101212.03;10460168;28;20060;-70
2021/12/23 11:52:16;;;;;;;8.10;3.75;;;;;;;-1.84;65.69;101194.81;10460782;28;20523;-71
2021/12/23 11:57:30;;;;;;;5.72;3.42;;;;;;;-1.77;64.97;101197.13;10460038;28;20075;-71
2021/12/23 12:02:32;;;;;;;10.23;3.60;;;;;;;-3.38;65.06;100950.03;10460692;28;20098;-71
2021/12/23 12:07:33;;;;;;;6.72;3.25;;;;;;;-2.64;65.47;101092.47;10460013;28;20518;-70
2021/12/23 12:12:51;;;;;;;7.82;3.78;;;;;;;-2.06;65.62;101214.91;10459615;28;20037;-70
2021/12/23 12:18:02;;;;;;;5.35;3.28;;;;;;;-2.31;66.47;101189.06;10441686;28;20091;-70
2021/12/23 12:23:13;;;;;;;8.48;3.58;;;;;;;-4.92;66.07;100750.38;10474964;28;20080;-70
2021/12/23 12:28:18;;;;;;;6.50;3.17;;;;;;;-2.21;65.96;101208.59;10481393;28;20049;-71
2021/12/23 12:33:18;;;;;;;9.32;3.72;;;;;;;-2.47;65.99;101180.22;10493107;28;20527;-70
2021/12/23 12:38:22;;;;;;;5.63;3.13;;;;;;;-2.38;65.13;101209.28;10499484;28;20080;-72
2021/12/23 12:43:41;;;;;;;6.55;3.33;;;;;;;-3.30;65.09;101072.63;10499278;28;20090;-70
2021/12/23 12:48:58;;;;;;;6.95;3.53;;;;;;;-2.58;64.79;101215.31;10481420;28;20066;-70
2021/12/23 12:54:06;;;;;;;8.93;3.55;;;;;;;-3.45;65.49;101102.66;10498809;28;20040;-69
2021/12/23 12:59:08;;;;;;;12.35;3.78;;;;;;;-3.06;66.72;101205.13;10481713;28;20059;-69
2021/12/23 13:04:33;;;;;;;10.23;3.97;;;;;;;-3.00;67.66;101229.09;10493946;28;20508;-69
2021/12/23 13:09:48;;;;;;;8.25;3.92;;;;;;;-3.20;67.68;101203.06;10495989;28;20049;-69
2021/12/23 13:15:05;;;;;;;12.88;4.03;;;;;;;-4.27;68.06;101057.34;10485731;28;20141;-71
2021/12/23 13:20:06;;;;;;;11.85;4.18;;;;;;;-4.07;68.12;101099.84;10486836;28;20052;-69
2021/12/23 13:25:08;;;;;;;12.43;4.00;;;;;;;-3.59;68.59;101184.63;10496224;28;20036;-69
2021/12/23 13:30:11;;;;;;;9.02;3.90;;;;;;;-3.44;67.81;101228.19;10493018;28;20036;-69
2021/12/23 13:35:15;;;;;;;10.17;4.33;;;;;;;-3.98;69.47;101164.41;10462921;28;20043;-69
2021/12/23 13:40:32;;;;;;;8.97;3.77;;;;;;;-3.94;69.80;101208.38;10453439;28;20062;-71
2021/12/23 13:45:33;;;;;;;12.95;3.78;;;;;;;-4.41;69.98;101184.91;10477453;28;20060;-69
2021/12/23 13:50:36;;;;;;;6.93;3.80;;;;;;;-4.53;70.30;101193.09;10475330;28;20063;-72
2021/12/23 13:55:37;;;;;;;9.95;4.05;;;;;;;-5.43;71.10;101066.47;10491679;28;20044;-71
2021/12/23 14:00:37;;;;;;;11.15;4.25;;;;;;;-4.69;70.86;101197.94;10478182;28;20044;-70
2021/12/23 14:05:42;;;;;;;6.68;3.60;;;;;;;-4.82;70.66;101202.69;10491672;28;20047;-70
2021/12/23 14:10:44;;;;;;;10.20;3.67;;;;;;;-5.60;71.50;101083.38;10484893;28;20045;-70
2021/12/23 14:15:48;;;;;;;11.02;4.03;;;;;;;-5.43;72.32;101080.28;10467139;28;20097;-70
2021/12/23 14:26:21;;;;;;;8.93;4.03;;;;;;;-4.32;71.31;101264.16;10464631;28;20045;-70
2021/12/23 14:31:29;;;;;;;8.43;3.50;;;;;;;-4.32;71.83;101261.56;10495073;28;20094;-70
2021/12/23 14:36:34;;;;;;;6.88;3.75;;;;;;;-4.31;71.71;101263.25;10495156;28;20042;-68
2021/12/23 14:41:38;;;;;;;8.48;3.63;;;;;;;-6.01;72.04;100982.03;10493515;28;20496;-73
2021/12/23 14:47:03;;;;;;;6.82;3.53;;;;;;;-4.26;72.52;101263.97;10427378;28;20552;-76
2021/12/23 14:52:30;;;;;;;5.95;3.28;;;;;;;-4.32;72.03;101256.38;10394694;28;20502;-72
2021/12/23 14:57:45;;;;;;;9.77;3.50;;;;;;;-4.48;72.25;101250.84;10402883;28;20041;-70
2021/12/23 15:02:46;;;;;;;13.00;3.85;;;;;;;-4.60;72.29;101239.13;10407088;28;20048;-69
2021/12/23 15:08:21;;;;;;;7.70;3.63;;;;;;;-4.51;73.08;101227.63;10412028;28;20484;-69
2021/12/23 15:13:27;;;;;;;18.42;9.18;;;;;;;-4.99;73.51;101123.78;10403515;28;20046;-69
2021/12/23 15:18:42;;;;;;;14.43;7.63;;;;;;;-3.94;72.98;101288.84;10415310;28;20041;-69
2021/12/23 15:23:48;;;;;;;6.85;3.90;;;;;;;-4.62;72.89;101155.34;10418849;28;20084;-69
2021/12/23 15:29:11;;;;;;;6.40;3.03;;;;;;;-3.75;73.20;101278.66;10420686;28;20516;-70
2021/12/23 15:34:12;;;;;;;9.02;3.10;;;;;;;-4.59;72.54;101133.66;10419337;28;20041;-69
2021/12/23 15:39:34;;;;;;;7.28;3.20;;;;;;;-3.86;72.44;101238.38;10419531;28;20042;-69
2021/12/23 15:44:39;;;;;;;5.68;3.10;;;;;;;-3.50;72.33;101312.41;10456050;28;20373;-69
2021/12/23 15:49:40;;;;;;;;;;;;;;;-3.45;72.00;101304.44;10463805;28;20052;-69
2021/12/23 15:54:41;;;;;;;5.68;2.85;;;;;;;-3.63;71.67;101282.56;10500673;28;20412;-69
2021/12/23 15:59:43;;;;;;;6.47;2.60;;;;;;;-3.45;71.92;101318.28;10500770;28;20064;-69
2021/12/23 16:07:16;;;;;;;5.38;2.65;;;;;;;-3.47;71.54;101319.22;10501226;28;20048;-69
2021/12/23 16:10:13;;;;;;;10.32;3.67;;;;;;;-4.05;71.85;101239.03;10500725;28;20170;-69
2021/12/23 16:15:16;;;;;;;7.15;3.63;;;;;;;-3.89;72.42;101270.50;10465165;28;20508;-70
2021/12/23 16:20:21;;;;;;;7.03;3.00;;;;;;;-3.70;72.05;101297.53;10417278;28;20416;-70
2021/12/23 16:25:22;;;;;;;7.60;3.65;;;;;;;-4.77;71.74;101140.31;10417477;28;20441;-69
2021/12/23 16:30:24;;;;;;;8.35;3.47;;;;;;;-4.09;71.90;101276.38;10416709;28;20046;-70
2021/12/23 16:35:28;;;;;;;8.20;3.67;;;;;;;-4.04;72.45;101286.59;10416148;28;20127;-70
2021/12/23 16:40:31;;;;;;;;;;;;;;;-3.72;72.75;101317.50;10416153;28;20501;-70
2021/12/23 16:45:34;;;;;;;12.10;3.85;;;;;;;-3.64;72.41;101322.44;10414806;28;19924;-69
2021/12/23 16:50:35;;;;;;;9.00;3.70;;;;;;;-3.58;72.21;101316.19;10414074;28;20103;-69
2021/12/23 17:00:41;;;;;;;;;;;;;;;-3.69;72.68;101329.53;10457566;28;20040;-69
2021/12/23 17:05:45;;;;;;;10.85;3.47;;;;;;;-3.90;72.36;101341.50;10456665;28;19912;-70
2021/12/23 17:10:48;;;;;;;7.95;2.95;;;;;;;-4.88;72.49;101196.84;10457378;28;20120;-69
2021/12/23 17:15:49;;;;;;;6.20;3.33;;;;;;;-4.23;72.85;101301.94;10456486;28;20033;-69
2021/12/23 17:25:52;;;;;;;7.75;5.05;;;;;;;-4.42;73.39;101255.00;10456086;28;20044;-69
2021/12/23 17:30:54;;;;;;;9.73;4.00;;;;;;;-5.18;73.38;101147.66;10456186;28;20120;-69
2021/12/23 17:35:56;;;;;;;6.45;3.85;;;;;;;-4.18;73.50;101334.63;10438414;28;20041;-69
2021/12/23 17:40:58;;;;;;;7.55;3.58;;;;;;;-4.18;73.74;101347.59;10454314;28;20039;-69
2021/12/23 17:45:59;;;;;;;10.50;3.95;;;;;;;-4.20;74.04;101346.78;10455227;28;20076;-69
2021/12/23 17:51:01;;;;;;;9.18;3.97;;;;;;;-5.24;74.35;101163.41;10455395;28;20123;-69
2021/12/23 17:56:03;;;;;;;6.07;3.63;;;;;;;-4.32;74.15;101334.19;10453695;28;20053;-69
2021/12/23 18:01:06;;;;;;;7.40;3.95;;;;;;;-4.20;74.94;101354.56;10451915;28;20063;-69
2021/12/23 18:06:09;;;;;;;11.07;3.95;;;;;;;-4.16;74.95;101361.38;10436955;28;20451;-69
2021/12/23 18:11:10;;;;;;;7.63;4.22;;;;;;;-4.19;74.89;101366.66;10454689;28;20079;-69
2021/12/23 18:16:11;;;;;;;8.88;3.67;;;;;;;-5.93;74.05;101081.84;10453455;28;20065;-69
2021/12/23 18:21:11;;;;;;;8.48;4.60;;;;;;;-4.23;74.45;101378.00;10455656;28;20396;-69
2021/12/23 18:26:12;;;;;;;6.75;4.05;;;;;;;-4.45;74.40;101351.06;10453768;28;20543;-69
2021/12/23 18:31:14;;;;;;;8.75;4.20;;;;;;;-5.24;74.30;101191.91;10452694;28;20565;-69
2021/12/23 18:41:52;;;;;;;7.45;3.80;;;;;;;-4.42;74.24;101328.47;10347832;28;20049;-69
2021/12/23 18:46:55;;;;;;;10.95;5.68;;;;;;;-4.36;74.14;101356.81;10454070;28;20037;-68
2021/12/23 18:52:00;;;;;;;11.77;6.37;;;;;;;-4.97;74.23;101256.72;10456739;28;20063;-69
2021/12/23 18:57:01;;;;;;;9.25;5.20;;;;;;;-4.19;73.72;101394.31;10463140;28;20101;-69
2021/12/23 19:02:07;;;;;;;10.20;4.78;;;;;;;-5.21;73.72;101227.22;10462271;28;20029;-69
2021/12/23 19:07:12;;;;;;;13.35;7.32;;;;;;;-5.16;73.55;101233.13;10462350;28;20515;-69
2021/12/23 19:12:13;;;;;;;14.23;7.53;;;;;;;-5.14;73.35;101254.66;10461580;28;20041;-69
2021/12/23 19:17:13;;;;;;;14.02;6.05;;;;;;;-4.73;73.75;101343.25;10461845;28;20049;-69
2021/12/23 19:22:14;;;;;;;10.68;4.72;;;;;;;-5.49;73.41;101237.56;10462550;28;20408;-69
2021/12/23 19:27:15;;;;;;;7.82;4.60;;;;;;;-4.75;73.99;101387.38;10473308;28;20547;-69
2021/12/23 19:32:17;;;;;;;7.55;4.38;;;;;;;-5.16;73.97;101340.19;10468433;28;20404;-69
2021/12/23 19:37:20;;;;;;;10.38;5.30;;;;;;;-4.80;74.34;101422.94;10460727;28;20045;-70
2021/12/23 19:42:20;;;;;;;8.88;5.10;;;;;;;-5.00;74.15;101400.19;10460721;28;20071;-69
2021/12/23 19:47:21;;;;;;;13.00;4.70;;;;;;;-5.25;74.31;101393.97;10461793;28;20449;-69
2021/12/23 19:52:24;;;;;;;12.38;6.22;;;;;;;-6.31;74.97;101251.84;10460070;28;20145;-70
2021/12/23 19:57:25;;;;;;;8.30;4.95;;;;;;;-5.64;74.88;101366.50;10500043;28;20049;-69
2021/12/23 20:02:27;;;;;;;11.20;6.05;;;;;;;-5.95;74.77;101331.97;10502030;28;20045;-70
2021/12/23 20:07:28;;;;;;;8.50;5.18;;;;;;;-5.37;75.32;101442.63;10483683;28;20043;-69
2021/12/23 20:12:28;;;;;;;12.75;5.05;;;;;;;-5.82;75.41;101374.75;10501123;28;20452;-69
2021/12/23 20:17:29;;;;;;;9.73;5.00;;;;;;;-5.52;75.49;101446.44;10500369;28;20040;-69
2021/12/23 20:22:30;;;;;;;16.95;5.60;;;;;;;-5.62;75.65;101444.16;10500597;28;20041;-70
2021/12/23 20:27:33;;;;;;;9.27;4.97;;;;;;;-5.64;75.49;101456.28;10500677;28;20506;-69
2021/12/23 20:32:36;;;;;;;9.10;5.57;;;;;;;-5.70;75.55;101459.00;10482051;28;20170;-69
2021/12/23 20:37:37;;;;;;;13.98;5.57;;;;;;;-6.07;75.75;101415.91;10500654;28;20048;-69
2021/12/23 20:42:38;;;;;;;12.32;5.38;;;;;;;-6.12;76.21;101422.94;10499438;28;20048;-69
2021/12/23 20:47:40;;;;;;;10.52;5.07;;;;;;;-5.97;76.10;101458.81;10499297;28;20036;-72
2021/12/23 20:52:44;;;;;;;10.43;5.28;;;;;;;-6.09;75.99;101466.84;10500318;28;20495;-69
2021/12/23 20:57:45;;;;;;;11.27;6.00;;;;;;;-6.38;76.25;101436.44;10496665;28;20048;-70
2021/12/23 21:02:46;;;;;;;9.40;5.13;;;;;;;-6.27;76.03;101476.69;10488892;28;20106;-69
2021/12/23 21:07:46;;;;;;;9.35;5.28;;;;;;;-6.43;76.33;101470.16;10499027;28;20049;-70
2021/12/23 21:12:53;;;;;;;12.88;4.97;;;;;;;-6.50;76.93;101474.59;10498483;28;20071;-69
2021/12/23 21:17:53;;;;;;;11.70;5.60;;;;;;;-6.62;76.78;101472.25;10497587;28;20054;-69
2021/12/23 21:22:55;;;;;;;11.75;5.97;;;;;;;-7.45;77.25;101343.91;10497683;28;20415;-69
2021/12/23 21:27:57;;;;;;;10.77;5.50;;;;;;;-6.72;76.83;101479.34;10496483;28;20041;-69
2021/12/23 21:32:58;;;;;;;9.80;5.70;;;;;;;-8.22;77.34;101233.56;10499129;28;20044;-69
2021/12/23 21:37:59;;;;;;;13.07;5.60;;;;;;;-7.02;77.30;101441.22;10497671;28;20044;-70
2021/12/23 21:43:00;;;;;;;17.08;7.53;;;;;;;-7.74;77.22;101339.28;10497642;28;20484;-69
2021/12/23 21:48:02;;;;;;;17.70;8.93;;;;;;;-6.91;77.76;101489.22;10497911;28;20090;-69
2021/12/23 21:53:03;;;;;;;15.32;6.40;;;;;;;-8.58;78.27;101205.84;10497525;28;20147;-69
2021/12/23 21:58:06;;;;;;;12.07;6.05;;;;;;;-6.75;78.69;101488.91;10496785;28;20048;-70
2021/12/23 22:03:07;;;;;;;9.60;5.18;;;;;;;-7.67;78.34;101328.81;10496127;28;20044;-69
2021/12/23 22:08:09;;;;;;;13.80;5.47;;;;;;;-6.61;78.84;101501.53;10496179;28;20037;-69
2021/12/23 22:13:10;;;;;;;13.75;5.32;;;;;;;-6.78;78.89;101465.72;10497037;28;20036;-69
2021/12/23 22:18:12;;;;;;;13.73;6.43;;;;;;;-7.60;78.46;101342.47;10496872;28;20131;-70
2021/12/23 22:23:15;;;;;;;11.30;6.38;;;;;;;-6.92;78.34;101466.81;10478655;28;20047;-69
2021/12/23 22:28:16;;;;;;;11.75;5.72;;;;;;;-6.81;78.44;101486.44;10495756;28;20037;-69
2021/12/23 22:33:17;;;;;;;9.38;5.32;;;;;;;-7.28;78.69;101408.13;10496062;28;20500;-69
2021/12/23 22:38:18;;;;;;;9.60;5.43;;;;;;;-6.79;78.69;101479.50;10495281;28;20078;-69
2021/12/23 22:43:19;;;;;;;13.40;6.57;;;;;;;-6.90;78.33;101449.56;10496876;28;20068;-69
2021/12/23 22:48:19;;;;;;;11.35;6.35;;;;;;;-6.51;78.35;101498.75;10495792;28;20064;-69
2021/12/23 22:53:22;;;;;;;11.82;6.22;;;;;;;-7.47;78.68;101356.84;10496007;28;20073;-69
2021/12/23 22:58:23;;;;;;;10.77;5.57;;;;;;;-6.55;79.02;101520.38;10496001;28;20048;-69
2021/12/23 23:03:27;;;;;;;10.25;5.97;;;;;;;-7.18;79.01;101407.06;10495335;28;20496;-71
2021/12/23 23:08:30;;;;;;;9.80;5.47;;;;;;;-6.61;79.04;101486.03;10495768;28;20037;-69
2021/12/23 23:13:42;;;;;;;12.40;5.97;;;;;;;-7.21;79.07;101391.63;10495251;28;20132;-69
2021/12/23 23:18:43;;;;;;;9.75;5.15;;;;;;;-6.80;78.71;101463.16;10494990;28;20033;-69
2021/12/23 23:24:06;;;;;;;10.48;5.18;;;;;;;-7.41;78.86;101374.81;10495680;28;20139;-69
2021/12/23 23:44:59;;;;;;;9.68;5.13;;;;;;;-6.79;78.64;101519.13;10502302;28;20119;-69
2021/12/23 23:50:00;;;;;;;10.70;4.82;;;;;;;-6.86;78.58;101516.69;10501316;28;20147;-69
2021/12/23 23:55:08;;;;;;;11.70;5.25;;;;;;;-7.68;79.32;101385.63;10501970;28;20479;-70
